Time;durP1;ratioP1;P1;durP2;ratioP2;P2;SDS_P1;SDS_P2;PMS_P1;PMS_P2;Temp;Humidity;BMP_temperature;BMP_pressure;BME280_temperature;BME280_humidity;BME280_pressure;Samples;Min_cycle;Max_cycle;Signal;HPM_P1;HPM_P2
2022/05/15 00:00:52;;;;;;;5.80;3.20;;;12.80;93.80;;;;;;5107904;27;20208;-61
2022/05/15 00:03:21;;;;;;;5.07;3.10;;;12.70;93.60;;;;;;5102422;27;21012;-60
2022/05/15 00:05:54;;;;;;;11.07;4.80;;;12.70;93.40;;;;;;5104230;28;20526;-59
2022/05/15 00:08:20;;;;;;;5.70;3.60;;;12.70;93.40;;;;;;5105132;28;20472;-60
2022/05/15 00:10:46;;;;;;;8.10;3.40;;;12.70;93.60;;;;;;5109055;28;20461;-60
2022/05/15 00:13:13;;;;;;;5.57;3.50;;;12.60;93.90;;;;;;5108440;28;20515;-59
2022/05/15 00:15:39;;;;;;;4.47;3.70;;;12.60;94.00;;;;;;5110252;27;20438;-60
2022/05/15 00:18:05;;;;;;;6.80;3.63;;;12.50;94.70;;;;;;5103517;27;20621;-60
2022/05/15 00:20:31;;;;;;;6.13;3.60;;;12.50;94.90;;;;;;5091348;28;20461;-57
2022/05/15 00:22:57;;;;;;;4.20;3.07;;;12.50;93.80;;;;;;5106708;28;20440;-59
2022/05/15 00:25:23;;;;;;;4.53;3.93;;;12.40;93.40;;;;;;5103512;27;20457;-60
2022/05/15 00:27:49;;;;;;;4.43;3.90;;;12.40;94.10;;;;;;5106168;28;20422;-59
2022/05/15 00:30:16;;;;;;;5.77;3.60;;;12.40;94.60;;;;;;5105443;28;20176;-60
2022/05/15 00:32:42;;;;;;;3.50;3.20;;;12.30;95.10;;;;;;5103718;28;20443;-60
2022/05/15 00:35:09;;;;;;;4.83;3.67;;;12.30;94.90;;;;;;5103316;28;20767;-60
2022/05/15 00:37:35;;;;;;;4.80;3.27;;;12.30;94.70;;;;;;5108856;28;20702;-59
2022/05/15 00:40:01;;;;;;;6.37;3.70;;;12.20;94.90;;;;;;5106193;28;20418;-58
2022/05/15 00:42:26;;;;;;;10.90;3.27;;;12.20;95.10;;;;;;5107804;28;20199;-60
2022/05/15 00:44:52;;;;;;;5.10;3.20;;;12.20;95.20;;;;;;5106849;27;20684;-58
2022/05/15 00:47:18;;;;;;;4.63;3.23;;;12.10;95.00;;;;;;5107757;28;20176;-60
2022/05/15 00:49:45;;;;;;;3.90;3.37;;;12.10;94.90;;;;;;5114246;27;20549;-59
2022/05/15 00:52:14;;;;;;;9.83;3.90;;;12.00;95.20;;;;;;5108924;28;20185;-60
2022/05/15 00:54:49;;;;;;;6.17;3.60;;;12.00;96.00;;;;;;5107599;28;20430;-60
2022/05/15 00:57:21;;;;;;;3.90;3.50;;;12.00;96.20;;;;;;5104943;28;20418;-59
2022/05/15 01:00:16;;;;;;;4.43;3.67;;;12.00;96.60;;;;;;5086544;28;20430;-60
2022/05/15 01:02:55;;;;;;;7.63;3.90;;;11.90;96.40;;;;;;5107049;27;20457;-60
2022/05/15 01:05:21;;;;;;;3.53;3.23;;;11.90;96.60;;;;;;5088758;28;20495;-60
2022/05/15 01:07:47;;;;;;;4.30;3.93;;;11.90;97.00;;;;;;5106864;28;20415;-60
2022/05/15 01:10:13;;;;;;;13.53;5.50;;;11.90;97.20;;;;;;5090929;28;20954;-60
2022/05/15 01:12:41;;;;;;;5.57;4.63;;;11.90;97.30;;;;;;5110347;27;20666;-59
2022/05/15 01:15:15;;;;;;;9.50;6.10;;;11.80;97.40;;;;;;5101290;28;20439;-61
2022/05/15 01:17:41;;;;;;;9.07;3.80;;;11.80;97.80;;;;;;5106683;28;20433;-60
2022/05/15 01:20:10;;;;;;;5.83;3.93;;;11.70;97.80;;;;;;5110759;27;20426;-59
2022/05/15 01:22:36;;;;;;;6.17;4.10;;;11.70;97.60;;;;;;5109087;28;20193;-60
2022/05/15 01:25:27;;;;;;;3.93;3.27;;;11.70;97.90;;;;;;5091173;28;20508;-59
2022/05/15 01:28:01;;;;;;;4.83;3.27;;;11.70;97.60;;;;;;5087568;28;20434;-60
2022/05/15 01:30:26;;;;;;;3.70;3.40;;;11.60;97.80;;;;;;5088382;27;20421;-59
2022/05/15 01:32:52;;;;;;;4.07;3.67;;;11.60;97.50;;;;;;5103048;27;20434;-59
2022/05/15 01:35:18;;;;;;;3.63;2.93;;;11.60;97.80;;;;;;5103107;27;20244;-60
2022/05/15 01:37:44;;;;;;;3.87;3.50;;;11.60;98.30;;;;;;5106472;28;20177;-59
2022/05/15 01:40:10;;;;;;;8.10;3.93;;;11.60;97.80;;;;;;5108573;27;20173;-59
2022/05/15 01:42:36;;;;;;;4.73;3.10;;;11.50;97.20;;;;;;5104935;28;20196;-60
2022/05/15 01:45:03;;;;;;;3.97;3.30;;;11.50;96.60;;;;;;5108982;28;20461;-59
2022/05/15 01:47:29;;;;;;;4.60;3.60;;;11.40;96.50;;;;;;5107508;28;20415;-58
2022/05/15 01:49:54;;;;;;;5.80;3.30;;;11.40;96.90;;;;;;5104178;28;20906;-60
2022/05/15 01:52:20;;;;;;;3.23;2.93;;;11.40;97.30;;;;;;5108125;28;20673;-60
2022/05/15 01:54:46;;;;;;;5.43;3.70;;;11.40;97.60;;;;;;5106730;28;20264;-59
2022/05/15 01:57:11;;;;;;;5.40;4.00;;;11.40;97.90;;;;;;5107665;28;20181;-60
2022/05/15 01:59:38;;;;;;;6.40;4.00;;;11.30;98.10;;;;;;5107709;28;20645;-59
2022/05/15 02:02:05;;;;;;;4.73;3.30;;;11.30;98.10;;;;;;5107815;28;20201;-59
2022/05/15 02:04:31;;;;;;;5.00;3.70;;;11.20;97.80;;;;;;5101471;28;20982;-59
2022/05/15 02:06:57;;;;;;;4.00;3.60;;;11.20;98.80;;;;;;5104090;28;20415;-59
2022/05/15 02:09:22;;;;;;;4.80;3.43;;;11.20;98.80;;;;;;5107022;28;20448;-59
2022/05/15 02:11:48;;;;;;;9.47;3.60;;;11.10;99.50;;;;;;5108253;28;20661;-59
2022/05/15 02:14:13;;;;;;;5.30;3.27;;;11.10;99.80;;;;;;5121235;28;20685;-59
2022/05/15 02:16:39;;;;;;;5.33;3.40;;;11.10;99.60;;;;;;5108449;28;20280;-59
2022/05/15 02:19:06;;;;;;;9.80;3.83;;;11.00;99.60;;;;;;5110316;28;20181;-59
2022/05/15 02:21:32;;;;;;;4.40;3.90;;;11.00;99.70;;;;;;5113432;27;20590;-58
2022/05/15 02:23:58;;;;;;;4.30;3.37;;;11.00;99.90;;;;;;5110405;27;20490;-59
2022/05/15 02:26:24;;;;;;;7.20;4.37;;;10.90;99.90;;;;;;5110931;28;20962;-58
2022/05/15 02:28:50;;;;;;;12.80;3.70;;;10.90;99.90;;;;;;5110930;28;20169;-59
2022/05/15 02:31:16;;;;;;;8.77;3.67;;;10.90;99.90;;;;;;5111532;27;20461;-59
2022/05/15 02:33:42;;;;;;;4.30;3.47;;;10.80;99.90;;;;;;5111395;28;20503;-60
2022/05/15 02:36:08;;;;;;;3.67;3.30;;;10.80;99.90;;;;;;5116358;27;20439;-59
2022/05/15 02:38:35;;;;;;;4.53;3.60;;;10.80;99.90;;;;;;5114870;27;20795;-59
2022/05/15 02:41:00;;;;;;;4.63;3.37;;;10.70;99.90;;;;;;5109091;28;20450;-59
2022/05/15 02:43:26;;;;;;;5.90;3.27;;;10.70;99.90;;;;;;5104747;28;20491;-59
2022/05/15 02:45:52;;;;;;;4.30;3.60;;;10.70;99.90;;;;;;5110870;28;20234;-58
2022/05/15 02:51:05;;;;;;;9.47;4.13;;;10.70;99.90;;;;;;5113022;27;20200;-59
2022/05/15 02:53:50;;;;;;;4.33;3.43;;;10.70;99.90;;;;;;5107508;28;20434;-59
2022/05/15 02:56:26;;;;;;;9.63;3.53;;;10.60;99.90;;;;;;5106505;28;20823;-59
2022/05/15 02:58:52;;;;;;;6.93;3.30;;;10.60;99.90;;;;;;5103374;27;20513;-58
2022/05/15 03:01:18;;;;;;;5.60;3.90;;;10.60;99.90;;;;;;5110382;28;20759;-60
2022/05/15 03:03:44;;;;;;;3.93;3.57;;;10.60;99.90;;;;;;5115445;27;20772;-59
2022/05/15 03:06:11;;;;;;;5.07;3.60;;;10.50;99.90;;;;;;5109388;27;20526;-60
2022/05/15 03:08:41;;;;;;;4.07;3.67;;;10.50;99.90;;;;;;5102359;28;20843;-60
2022/05/15 03:11:07;;;;;;;5.83;3.80;;;10.50;99.90;;;;;;5104750;28;20537;-60
2022/05/15 03:13:33;;;;;;;7.93;3.37;;;10.40;99.90;;;;;;5088062;28;20435;-60
2022/05/15 03:15:58;;;;;;;3.30;3.07;;;10.40;99.90;;;;;;5106168;27;20441;-61
2022/05/15 03:18:24;;;;;;;6.70;3.53;;;10.40;99.90;;;;;;5090364;28;20618;-60
2022/05/15 03:20:50;;;;;;;5.60;3.30;;;10.40;99.90;;;;;;5107772;27;20659;-59
2022/05/15 03:23:15;;;;;;;5.93;3.70;;;10.40;99.90;;;;;;5111832;27;20205;-60
2022/05/15 03:25:42;;;;;;;4.67;3.50;;;10.40;99.90;;;;;;5107830;27;20996;-60
2022/05/15 03:28:10;;;;;;;6.80;4.20;;;10.30;99.90;;;;;;5103806;28;20177;-59
2022/05/15 03:30:38;;;;;;;4.00;3.60;;;10.30;99.90;;;;;;5106870;28;20436;-60
2022/05/15 03:33:04;;;;;;;4.20;3.80;;;10.30;99.90;;;;;;5108412;28;20793;-59
2022/05/15 03:35:30;;;;;;;4.20;3.70;;;10.30;99.90;;;;;;5112877;27;20414;-59
2022/05/15 03:37:56;;;;;;;5.27;3.43;;;10.30;99.90;;;;;;5120891;27;20426;-59
2022/05/15 03:40:21;;;;;;;5.37;3.73;;;10.30;99.90;;;;;;5103099;28;21139;-59
2022/05/15 03:42:47;;;;;;;4.90;3.67;;;10.20;99.90;;;;;;5110786;28;20281;-59
2022/05/15 03:45:13;;;;;;;5.13;3.53;;;10.20;99.90;;;;;;5108301;28;20177;-59
2022/05/15 03:47:46;;;;;;;5.93;3.40;;;10.20;99.90;;;;;;5112331;27;20173;-59
2022/05/15 03:50:13;;;;;;;4.20;3.53;;;10.20;99.90;;;;;;5106449;27;20229;-58
2022/05/15 03:52:38;;;;;;;3.57;3.23;;;10.10;99.90;;;;;;5111449;27;20501;-60
2022/05/15 03:55:05;;;;;;;3.10;2.90;;;10.10;99.90;;;;;;5102136;28;20950;-60
2022/05/15 03:57:30;;;;;;;4.63;3.93;;;10.10;99.90;;;;;;5116681;27;20566;-60
2022/05/15 03:59:56;;;;;;;6.70;3.67;;;10.10;99.90;;;;;;5107584;28;20946;-59
2022/05/15 04:02:22;;;;;;;6.20;3.73;;;10.10;99.90;;;;;;5109281;28;20219;-60
2022/05/15 04:04:47;;;;;;;4.80;3.83;;;10.10;99.90;;;;;;5108558;28;20189;-60
2022/05/15 04:07:13;;;;;;;4.40;3.57;;;10.10;99.90;;;;;;5107982;27;20246;-59
2022/05/15 04:09:40;;;;;;;4.70;3.73;;;10.10;99.90;;;;;;5100252;27;20173;-60
2022/05/15 04:12:08;;;;;;;4.97;3.63;;;10.10;99.90;;;;;;5108529;28;20680;-60
2022/05/15 04:14:34;;;;;;;6.77;3.70;;;10.10;99.90;;;;;;5106879;27;20435;-59
2022/05/15 04:17:00;;;;;;;7.73;3.70;;;10.10;99.90;;;;;;5108037;27;21159;-60
2022/05/15 04:19:25;;;;;;;6.83;3.80;;;10.10;99.90;;;;;;5101319;27;20294;-60
2022/05/15 04:21:51;;;;;;;3.63;3.27;;;10.10;99.90;;;;;;5103226;27;20633;-60
2022/05/15 04:24:19;;;;;;;5.47;3.93;;;10.10;99.90;;;;;;5105385;27;20671;-59
2022/05/15 04:26:46;;;;;;;6.93;3.27;;;10.10;99.90;;;;;;5106164;27;20279;-61
2022/05/15 04:29:12;;;;;;;5.17;3.87;;;10.20;99.90;;;;;;5105419;28;20403;-60
2022/05/15 04:31:38;;;;;;;3.83;3.43;;;10.20;99.90;;;;;;5108025;28;20451;-59
2022/05/15 04:34:05;;;;;;;5.83;3.60;;;10.20;99.90;;;;;;5107879;28;20446;-59
2022/05/15 04:36:31;;;;;;;7.93;3.53;;;10.30;99.90;;;;;;5108075;27;20434;-59
2022/05/15 04:38:57;;;;;;;7.93;3.30;;;10.30;99.90;;;;;;5099983;28;20446;-60
2022/05/15 04:41:23;;;;;;;4.80;3.30;;;10.30;99.90;;;;;;5106479;28;20446;-59
2022/05/15 04:43:49;;;;;;;3.70;3.40;;;10.40;99.90;;;;;;5107498;28;20205;-59
2022/05/15 04:46:15;;;;;;;6.20;2.90;;;10.40;99.90;;;;;;5089782;28;20476;-60
2022/05/15 04:48:41;;;;;;;3.80;3.50;;;10.40;99.90;;;;;;5107625;28;20560;-59
2022/05/15 04:51:07;;;;;;;4.00;3.60;;;10.50;99.90;;;;;;5109920;27;20498;-59
2022/05/15 04:53:33;;;;;;;4.77;3.30;;;10.50;99.90;;;;;;5104500;28;20209;-59
2022/05/15 04:56:00;;;;;;;5.07;3.30;;;10.60;99.90;;;;;;5102355;28;20234;-59
2022/05/15 04:58:26;;;;;;;4.10;3.30;;;10.60;99.80;;;;;;5110425;28;20406;-59
2022/05/15 05:00:52;;;;;;;4.57;4.13;;;10.60;99.90;;;;;;5103575;27;20446;-59
2022/05/15 05:03:18;;;;;;;4.70;3.50;;;10.70;99.90;;;;;;5105864;27;20454;-61
2022/05/15 05:05:43;;;;;;;4.73;3.30;;;10.70;99.20;;;;;;5107916;27;20181;-56
2022/05/15 05:08:11;;;;;;;5.33;3.33;;;10.70;98.80;;;;;;5106774;28;20747;-56
2022/05/15 05:10:37;;;;;;;4.83;4.30;;;10.80;98.60;;;;;;5106555;28;20294;-57
2022/05/15 05:13:03;;;;;;;5.17;4.70;;;10.80;99.10;;;;;;5112091;27;20457;-55
2022/05/15 05:15:29;;;;;;;6.30;3.47;;;10.90;99.10;;;;;;5106496;28;20867;-59
2022/05/15 05:17:55;;;;;;;5.13;3.30;;;11.00;98.80;;;;;;5107259;27;20466;-58
2022/05/15 05:20:21;;;;;;;6.47;3.53;;;11.10;97.30;;;;;;5102457;27;20442;-59
2022/05/15 05:22:47;;;;;;;3.50;3.20;;;11.10;96.30;;;;;;5103329;27;20451;-60
2022/05/15 05:25:13;;;;;;;3.77;3.47;;;11.20;96.30;;;;;;5103437;28;20688;-60
2022/05/15 05:27:41;;;;;;;9.60;3.90;;;11.30;96.90;;;;;;5096399;28;20465;-60
2022/05/15 05:30:10;;;;;;;4.10;3.70;;;11.30;98.20;;;;;;5085619;28;20434;-58
2022/05/15 05:32:35;;;;;;;6.57;4.70;;;11.40;97.50;;;;;;5100326;28;20906;-59
2022/05/15 05:35:01;;;;;;;4.73;4.10;;;11.50;97.40;;;;;;5101716;27;20438;-60
2022/05/15 05:37:27;;;;;;;3.20;3.00;;;11.60;96.60;;;;;;5100616;28;20181;-61
2022/05/15 05:39:53;;;;;;;3.30;3.00;;;11.60;96.20;;;;;;5102357;27;20189;-59
2022/05/15 05:42:18;;;;;;;4.17;3.30;;;11.70;97.20;;;;;;5099417;28;20275;-59
2022/05/15 05:44:44;;;;;;;5.57;3.67;;;11.80;95.80;;;;;;5097195;28;20754;-60
2022/05/15 05:47:10;;;;;;;3.90;3.30;;;11.90;96.10;;;;;;5100639;28;20722;-58
2022/05/15 05:49:35;;;;;;;5.33;3.57;;;12.10;96.20;;;;;;5097229;28;20173;-58
2022/05/15 05:52:01;;;;;;;3.70;3.40;;;12.20;96.40;;;;;;5101741;28;20224;-57
2022/05/15 05:54:27;;;;;;;4.93;3.53;;;12.20;94.90;;;;;;5104619;28;20634;-59
2022/05/15 05:56:52;;;;;;;4.30;3.20;;;12.30;92.40;;;;;;5103859;28;20234;-61
2022/05/15 05:59:18;;;;;;;5.57;3.57;;;12.40;93.40;;;;;;5102909;28;20234;-60
2022/05/15 06:01:44;;;;;;;3.53;3.20;;;12.50;92.60;;;;;;5100951;28;20205;-59
2022/05/15 06:06:53;;;;;;;7.27;3.70;;;12.70;91.60;;;;;;5101933;28;20265;-52
2022/05/15 06:09:19;;;;;;;3.57;3.27;;;12.80;91.80;;;;;;5097802;28;20453;-55
2022/05/15 06:11:45;;;;;;;4.27;2.97;;;12.80;91.10;;;;;;5096229;28;20596;-54
2022/05/15 06:14:10;;;;;;;4.47;3.33;;;12.90;90.00;;;;;;5101194;28;20680;-55
2022/05/15 06:16:36;;;;;;;4.83;3.20;;;13.10;89.70;;;;;;5105157;28;20184;-54
2022/05/15 06:19:02;;;;;;;4.00;3.60;;;13.40;84.60;;;;;;5106188;28;20189;-53
2022/05/15 06:21:27;;;;;;;3.83;2.93;;;13.60;81.20;;;;;;5099896;28;20209;-54
2022/05/15 06:23:53;;;;;;;4.20;3.10;;;13.70;81.60;;;;;;5103884;28;20461;-56
2022/05/15 06:26:19;;;;;;;4.87;3.23;;;13.70;81.60;;;;;;5103162;28;20828;-54
2022/05/15 06:28:45;;;;;;;5.47;3.40;;;13.70;81.40;;;;;;5100240;28;20182;-52
2022/05/15 06:31:10;;;;;;;4.83;3.47;;;13.80;83.80;;;;;;5098807;28;20678;-59
2022/05/15 06:33:36;;;;;;;4.83;3.47;;;13.80;83.90;;;;;;5102046;28;20334;-60
2022/05/15 06:36:02;;;;;;;3.20;3.00;;;13.90;82.70;;;;;;5101093;28;20658;-62
2022/05/15 06:38:28;;;;;;;5.33;3.60;;;14.00;82.60;;;;;;5100126;28;20181;-59
2022/05/15 06:40:54;;;;;;;5.77;3.33;;;14.00;82.40;;;;;;5104239;28;20466;-59
2022/05/15 06:43:20;;;;;;;4.10;2.80;;;14.20;83.10;;;;;;5098590;28;20205;-59
2022/05/15 06:45:47;;;;;;;4.00;3.40;;;14.30;83.60;;;;;;5094226;28;20260;-58
2022/05/15 06:48:13;;;;;;;5.83;3.03;;;14.40;82.20;;;;;;5100217;28;20475;-58
2022/05/15 06:50:39;;;;;;;3.47;3.10;;;14.60;79.70;;;;;;5073928;28;20439;-60
2022/05/15 06:53:12;;;;;;;7.37;3.37;;;14.70;78.50;;;;;;5101888;28;20189;-59
2022/05/15 06:57:28;;;;;;;5.10;3.57;;;14.90;77.40;;;;;;5100282;28;20230;-58
2022/05/15 06:58:24;;;;;;;5.67;3.03;;;15.00;74.70;;;;;;5105740;28;20493;-58
2022/05/15 07:00:49;;;;;;;6.87;3.40;;;15.20;73.20;;;;;;5101881;28;20957;-58
2022/05/15 07:03:15;;;;;;;8.83;3.80;;;15.30;70.70;;;;;;5097980;28;20197;-58
2022/05/15 07:05:41;;;;;;;6.23;3.50;;;15.50;68.80;;;;;;5102428;28;20173;-58
2022/05/15 07:08:09;;;;;;;9.73;3.43;;;15.60;68.10;;;;;;5101591;27;20268;-58
2022/05/15 07:10:35;;;;;;;4.40;2.87;;;15.70;67.40;;;;;;5103462;28;20199;-56
2022/05/15 07:13:01;;;;;;;4.53;3.30;;;15.80;67.30;;;;;;5105330;27;20531;-58
2022/05/15 07:15:27;;;;;;;13.00;3.97;;;15.90;67.30;;;;;;5100636;27;20168;-58
2022/05/15 07:17:52;;;;;;;6.97;3.93;;;16.10;67.10;;;;;;5086617;28;20187;-58
2022/05/15 07:20:19;;;;;;;7.67;4.90;;;16.30;67.20;;;;;;5086698;28;20431;-58
2022/05/15 07:22:44;;;;;;;4.33;3.63;;;16.40;65.90;;;;;;5102024;27;20203;-58
2022/05/15 07:25:10;;;;;;;9.40;3.90;;;16.60;65.60;;;;;;5102523;27;20455;-56
2022/05/15 07:27:36;;;;;;;6.27;3.37;;;16.70;65.00;;;;;;5104311;28;20178;-57
2022/05/15 07:30:02;;;;;;;6.80;3.53;;;16.90;64.80;;;;;;5100464;27;20584;-56
2022/05/15 07:32:28;;;;;;;4.63;3.30;;;17.10;64.40;;;;;;5094716;28;20425;-59
2022/05/15 07:34:54;;;;;;;9.10;3.40;;;17.20;63.90;;;;;;5105228;27;20575;-57
2022/05/15 07:37:20;;;;;;;7.20;3.70;;;17.40;63.70;;;;;;5105073;28;20548;-58
2022/05/15 07:39:46;;;;;;;8.47;3.50;;;17.50;63.30;;;;;;5116987;27;20177;-58
2022/05/15 07:42:12;;;;;;;3.83;3.40;;;17.60;63.60;;;;;;5111601;28;20450;-58
2022/05/15 07:44:37;;;;;;;4.00;2.93;;;17.70;63.40;;;;;;5107222;28;20697;-57
2022/05/15 07:47:04;;;;;;;4.57;3.40;;;17.90;63.00;;;;;;5108588;28;20552;-58
2022/05/15 07:49:31;;;;;;;7.20;2.97;;;18.00;62.40;;;;;;5117921;27;20201;-58
2022/05/15 07:51:58;;;;;;;3.70;3.30;;;18.10;61.60;;;;;;5110930;28;20446;-59
2022/05/15 07:54:23;;;;;;;5.70;3.60;;;18.20;61.80;;;;;;5114820;27;20970;-57
2022/05/15 07:56:49;;;;;;;9.10;3.90;;;18.30;61.20;;;;;;5099453;27;20404;-57
2022/05/15 07:59:15;;;;;;;5.30;3.27;;;18.40;60.80;;;;;;5110490;28;20503;-57
2022/05/15 08:01:42;;;;;;;5.77;3.60;;;18.50;61.10;;;;;;5108595;28;20269;-59
2022/05/15 08:04:08;;;;;;;9.03;3.77;;;18.60;61.80;;;;;;5092135;28;20842;-59
2022/05/15 08:09:17;;;;;;;5.83;3.37;;;18.80;61.60;;;;;;5107860;28;20437;-57
2022/05/15 08:11:43;;;;;;;7.20;3.47;;;18.90;61.40;;;;;;5110451;28;20438;-58
2022/05/15 08:14:10;;;;;;;4.67;3.57;;;19.10;61.90;;;;;;5112434;27;20587;-58
2022/05/15 08:16:37;;;;;;;5.57;3.40;;;19.10;61.30;;;;;;5109812;28;20192;-58
2022/05/15 08:24:33;;;;;;;5.00;3.17;;;19.50;61.30;;;;;;5109265;27;20469;-57
2022/05/15 08:26:59;;;;;;;7.27;3.80;;;19.70;61.00;;;;;;5108786;28;20498;-58
2022/05/15 08:29:25;;;;;;;9.23;4.03;;;19.80;60.80;;;;;;5116165;27;20175;-58
2022/05/15 08:31:50;;;;;;;10.23;4.20;;;19.90;60.80;;;;;;5105119;28;20486;-57
2022/05/15 08:34:16;;;;;;;5.20;3.77;;;20.10;61.10;;;;;;5106686;27;20177;-58
2022/05/15 08:36:44;;;;;;;5.13;4.10;;;20.20;60.20;;;;;;5107234;27;20184;-58
2022/05/15 08:39:10;;;;;;;4.47;3.57;;;20.30;59.90;;;;;;5101824;28;21036;-57
2022/05/15 08:41:50;;;;;;;5.73;3.30;;;20.50;59.00;;;;;;5109996;28;20466;-57
2022/05/15 08:44:29;;;;;;;6.43;3.50;;;20.60;57.00;;;;;;5112786;27;20526;-59
2022/05/15 08:47:00;;;;;;;4.87;2.70;;;20.70;55.60;;;;;;5103546;28;20426;-59
2022/05/15 08:49:26;;;;;;;4.77;3.30;;;20.80;55.00;;;;;;5111857;27;20451;-58
2022/05/15 08:52:07;;;;;;;5.13;3.43;;;20.90;54.90;;;;;;5102058;28;20474;-59
2022/05/15 08:54:38;;;;;;;7.63;3.13;;;21.00;53.50;;;;;;5113176;27;20183;-58
2022/05/15 08:57:04;;;;;;;9.43;3.50;;;21.10;52.90;;;;;;5108969;28;20466;-58
2022/05/15 08:59:42;;;;;;;6.33;3.20;;;21.20;52.50;;;;;;5109278;28;20434;-59
2022/05/15 09:02:11;;;;;;;6.03;3.10;;;21.30;52.40;;;;;;5108329;28;20446;-58
2022/05/15 09:04:38;;;;;;;5.73;3.23;;;21.40;52.60;;;;;;5109813;27;20488;-58
2022/05/15 09:07:09;;;;;;;5.70;3.47;;;21.50;52.10;;;;;;5103853;28;20416;-57
2022/05/15 09:09:55;;;;;;;3.80;3.10;;;21.70;51.70;;;;;;5092472;28;20441;-58
2022/05/15 09:12:24;;;;;;;9.30;3.50;;;21.80;51.40;;;;;;5101132;28;20572;-60
2022/05/15 09:15:11;;;;;;;10.33;3.00;;;21.90;50.50;;;;;;5111547;27;20445;-58
2022/05/15 09:18:16;;;;;;;6.23;3.17;;;22.00;49.80;;;;;;5107974;28;20516;-60
2022/05/15 09:20:58;;;;;;;5.33;2.80;;;22.10;49.00;;;;;;5097116;28;20810;-56
2022/05/15 09:23:34;;;;;;;7.20;3.23;;;22.20;49.40;;;;;;5112606;27;20490;-58
2022/05/15 09:26:05;;;;;;;4.80;2.90;;;22.30;49.40;;;;;;5106530;27;20428;-57
2022/05/15 09:28:42;;;;;;;3.70;3.07;;;22.40;49.80;;;;;;5091103;28;20416;-58
2022/05/15 09:31:26;;;;;;;4.10;3.10;;;22.50;49.70;;;;;;5106569;28;20466;-57
2022/05/15 09:34:08;;;;;;;5.10;2.60;;;22.60;49.40;;;;;;5103144;27;20802;-57
2022/05/15 09:36:33;;;;;;;4.97;3.20;;;22.70;48.60;;;;;;5108302;28;20442;-59
2022/05/15 09:39:20;;;;;;;3.67;2.83;;;22.60;48.20;;;;;;5108560;28;20935;-57
2022/05/15 09:45:14;;;;;;;3.67;2.70;;;22.60;48.10;;;;;;5108323;27;20484;-58
2022/05/15 09:47:43;;;;;;;3.07;2.30;;;22.70;48.30;;;;;;5107527;28;20426;-58
2022/05/15 09:50:43;;;;;;;4.97;2.63;;;22.90;47.70;;;;;;5109318;27;20457;-57
2022/05/15 09:53:24;;;;;;;5.10;3.07;;;22.90;46.70;;;;;;5098355;28;20427;-58
2022/05/15 09:55:57;;;;;;;5.20;2.93;;;23.10;47.00;;;;;;5104505;28;20423;-57
2022/05/15 09:58:22;;;;;;;7.10;2.87;;;23.20;46.90;;;;;;5106540;28;20435;-56
2022/05/15 10:00:48;;;;;;;3.20;2.60;;;23.40;46.60;;;;;;5087910;28;20452;-59
2022/05/15 10:03:22;;;;;;;5.33;2.43;;;23.50;46.30;;;;;;5104888;28;20169;-57
2022/05/15 10:06:01;;;;;;;3.90;2.83;;;23.60;45.30;;;;;;5106009;28;20314;-58
2022/05/15 10:08:29;;;;;;;6.50;2.93;;;23.70;44.90;;;;;;5105168;28;20406;-58
2022/05/15 10:11:01;;;;;;;5.37;2.70;;;23.80;44.60;;;;;;5105059;28;20431;-57
2022/05/15 10:13:38;;;;;;;2.97;2.63;;;23.90;43.90;;;;;;5085324;28;21024;-57
2022/05/15 10:16:10;;;;;;;3.93;2.93;;;23.90;44.40;;;;;;5105034;28;20438;-58
2022/05/15 10:19:04;;;;;;;5.13;3.00;;;24.00;45.70;;;;;;5107988;28;20796;-57
2022/05/15 10:21:43;;;;;;;4.47;2.50;;;24.00;44.70;;;;;;5106292;28;20529;-58
2022/05/15 10:24:26;;;;;;;3.30;2.93;;;24.10;44.20;;;;;;5107545;28;20974;-59
2022/05/15 10:27:20;;;;;;;5.97;2.90;;;24.10;44.20;;;;;;5106552;28;20491;-60
2022/05/15 10:29:53;;;;;;;4.47;2.40;;;24.20;44.80;;;;;;5105741;28;21044;-57
2022/05/15 10:32:29;;;;;;;10.57;3.30;;;24.20;44.90;;;;;;5105587;28;20430;-58
2022/05/15 10:34:55;;;;;;;5.13;2.40;;;24.40;44.70;;;;;;5109048;28;20429;-57
2022/05/15 10:37:24;;;;;;;6.47;2.70;;;24.50;44.80;;;;;;5107619;28;20418;-58
2022/05/15 10:40:23;;;;;;;3.53;2.23;;;24.70;44.10;;;;;;5109070;27;21050;-58
2022/05/15 10:42:54;;;;;;;5.30;2.30;;;24.80;43.60;;;;;;5106128;28;20446;-57
2022/05/15 10:45:38;;;;;;;6.47;2.70;;;24.90;41.90;;;;;;5109632;28;20955;-58
2022/05/15 10:48:23;;;;;;;2.97;2.13;;;25.00;41.00;;;;;;5111751;27;20939;-60
2022/05/15 10:50:55;;;;;;;5.93;2.40;;;25.10;41.30;;;;;;5105435;28;20422;-59
2022/05/15 10:59:48;;;;;;;5.13;2.50;;;25.40;42.90;;;;;;5109129;28;20425;-60
2022/05/15 11:02:17;;;;;;;7.80;2.40;;;25.50;41.80;;;;;;5110280;28;21058;-58
2022/05/15 11:04:58;;;;;;;3.97;2.70;;;25.60;42.50;;;;;;5096545;27;20457;-59
2022/05/15 11:07:40;;;;;;;4.43;2.53;;;25.70;42.80;;;;;;5091864;28;20513;-58
2022/05/15 11:10:22;;;;;;;5.80;2.53;;;25.90;42.80;;;;;;5107762;27;20441;-59
2022/05/15 11:13:14;;;;;;;3.27;2.40;;;26.00;42.60;;;;;;5091117;28;20438;-58
2022/05/15 11:15:46;;;;;;;4.73;2.30;;;26.10;42.00;;;;;;5104481;28;20426;-57
2022/05/15 11:18:26;;;;;;;2.77;2.47;;;26.20;41.50;;;;;;5107817;27;20938;-60
2022/05/15 11:20:56;;;;;;;10.00;3.50;;;26.30;42.10;;;;;;5109264;27;20437;-58
2022/05/15 11:23:44;;;;;;;5.47;2.17;;;26.40;41.90;;;;;;5108703;27;20431;-59
2022/05/15 11:26:26;;;;;;;3.90;2.63;;;26.40;40.80;;;;;;5106595;27;20434;-61
2022/05/15 11:29:08;;;;;;;3.17;2.47;;;26.50;41.00;;;;;;5109410;27;20426;-59
2022/05/15 11:31:42;;;;;;;4.17;2.17;;;26.60;42.10;;;;;;5106169;27;20813;-58
2022/05/15 11:34:09;;;;;;;4.47;2.10;;;26.70;41.00;;;;;;5103278;27;20436;-58
2022/05/15 11:36:47;;;;;;;6.43;2.70;;;26.70;42.00;;;;;;5107207;28;20427;-59
2022/05/15 11:39:15;;;;;;;4.63;2.37;;;26.70;40.30;;;;;;5091436;27;20430;-60
2022/05/15 11:41:44;;;;;;;3.00;2.33;;;26.70;40.70;;;;;;5110781;28;20783;-58
2022/05/15 11:44:21;;;;;;;8.43;2.40;;;26.80;41.50;;;;;;5108817;28;20794;-58
2022/05/15 11:46:47;;;;;;;3.00;2.40;;;26.80;42.40;;;;;;5110224;27;20521;-59
2022/05/15 11:49:40;;;;;;;4.17;2.60;;;26.90;42.10;;;;;;5110645;27;20570;-59
2022/05/15 11:52:08;;;;;;;5.73;2.60;;;27.10;40.10;;;;;;5088133;28;20191;-59
2022/05/15 11:54:49;;;;;;;3.83;2.30;;;27.20;40.10;;;;;;5108682;28;20179;-59
2022/05/15 11:57:53;;;;;;;4.57;2.13;;;27.30;39.10;;;;;;5107736;27;20259;-59
2022/05/15 12:00:31;;;;;;;2.40;2.20;;;27.10;35.10;;;;;;5016347;28;20190;-58
2022/05/15 12:02:58;;;;;;;2.47;2.27;;;27.00;34.70;;;;;;5025567;28;20570;-57
2022/05/15 12:05:29;;;;;;;2.80;2.27;;;27.00;35.90;;;;;;5067052;27;20489;-58
2022/05/15 12:08:09;;;;;;;5.30;2.67;;;27.00;34.80;;;;;;5107726;27;20434;-57
2022/05/15 12:10:35;;;;;;;3.40;2.60;;;27.00;36.60;;;;;;5109877;28;20422;-58
2022/05/15 12:13:35;;;;;;;4.43;2.57;;;27.30;37.40;;;;;;5109567;27;20690;-57
2022/05/15 12:16:23;;;;;;;5.50;2.53;;;27.40;39.00;;;;;;5057897;28;20184;-59
2022/05/15 12:19:15;;;;;;;2.77;2.57;;;27.60;38.20;;;;;;5092557;27;20960;-59
2022/05/15 12:21:48;;;;;;;5.20;2.90;;;27.80;38.70;;;;;;5108006;28;20209;-57
2022/05/15 12:24:29;;;;;;;3.80;2.37;;;28.00;38.00;;;;;;5107946;27;20593;-59
2022/05/15 12:26:55;;;;;;;2.67;2.40;;;28.10;37.50;;;;;;5109871;28;20248;-58
2022/05/15 12:29:42;;;;;;;4.13;2.23;;;28.20;36.60;;;;;;5111226;27;20248;-60
2022/05/15 12:32:17;;;;;;;3.37;2.20;;;28.20;35.70;;;;;;5104301;27;20703;-58
2022/05/15 12:34:47;;;;;;;6.00;2.97;;;28.30;37.90;;;;;;5103169;27;20194;-58
2022/05/15 12:37:30;;;;;;;5.53;2.67;;;28.50;39.00;;;;;;5103474;27;20184;-58
2022/05/15 12:39:59;;;;;;;3.37;2.60;;;28.50;37.10;;;;;;5107657;28;20176;-57
2022/05/15 12:42:45;;;;;;;4.10;2.77;;;28.70;38.50;;;;;;5109820;28;20189;-58
2022/05/15 12:45:11;;;;;;;4.70;2.00;;;28.90;38.20;;;;;;5109155;28;20643;-59
2022/05/15 12:47:37;;;;;;;5.93;2.90;;;29.00;36.30;;;;;;5106815;27;20206;-57
2022/05/15 12:50:23;;;;;;;1.97;1.87;;;29.20;37.20;;;;;;5098173;28;20172;-62
2022/05/15 12:52:54;;;;;;;5.03;2.10;;;29.40;35.60;;;;;;5108433;27;20243;-58
2022/05/15 12:55:27;;;;;;;6.95;2.42;;;29.50;36.00;;;;;;5109451;27;20187;-57
2022/05/15 12:57:55;;;;;;;6.45;2.40;;;29.60;36.80;;;;;;5098986;27;20176;-58
2022/05/15 13:00:30;;;;;;;8.43;2.50;;;29.80;37.80;;;;;;5105595;28;20184;-58
2022/05/15 13:02:59;;;;;;;7.60;2.45;;;29.90;36.70;;;;;;5104427;27;20191;-59
2022/05/15 13:05:32;;;;;;;3.45;1.90;;;29.80;36.00;;;;;;5106425;27;20193;-59
2022/05/15 13:08:00;;;;;;;3.10;2.80;;;29.80;36.30;;;;;;5106512;28;20252;-59
2022/05/15 13:10:27;;;;;;;4.63;2.00;;;29.90;37.50;;;;;;5104932;28;20169;-60
2022/05/15 13:13:24;;;;;;;3.08;2.20;;;30.00;36.90;;;;;;5108761;28;20188;-59
2022/05/15 13:15:53;;;;;;;2.95;2.20;;;30.10;36.90;;;;;;5089835;28;20209;-58
2022/05/15 13:18:21;;;;;;;4.05;2.60;;;30.30;36.80;;;;;;5112602;27;20164;-58
2022/05/15 13:20:55;;;;;;;2.35;2.15;;;30.40;36.90;;;;;;5107117;28;20181;-59
2022/05/15 13:23:30;;;;;;;3.13;2.30;;;30.50;34.40;;;;;;5108537;28;20175;-57